createdAt,value
2022-12-15T00:04:20.016Z,-7.69
2022-12-15T00:14:42.305Z,-8.05
2022-12-15T00:25:04.867Z,-8.49
2022-12-15T00:35:28.242Z,-8.72
2022-12-15T00:45:50.656Z,-8.76
2022-12-15T00:56:13.170Z,-8.47
2022-12-15T01:06:38.383Z,-8.06
2022-12-15T01:17:01.132Z,-7.59
2022-12-15T01:27:04.991Z,-7.26
2022-12-15T01:37:08.932Z,-7.14
2022-12-15T01:47:14.441Z,-6.94
2022-12-15T01:57:22.914Z,-7.19
2022-12-15T02:07:27.159Z,-7.46
2022-12-15T02:18:08.652Z,-7.65
2022-12-15T02:28:50.179Z,-8.10
2022-12-15T02:38:53.821Z,-8.67
2022-12-15T02:49:24.009Z,-8.92
2022-12-15T02:59:55.812Z,-8.68
2022-12-15T03:10:04.646Z,-8.28
2022-12-15T03:20:12.248Z,-7.96
2022-12-15T03:30:17.072Z,-7.79
2022-12-15T03:40:22.581Z,-7.58
2022-12-15T03:50:29.857Z,-7.39
2022-12-15T04:00:34.152Z,-7.25
2022-12-15T04:10:40.635Z,-7.16
2022-12-15T04:20:44.379Z,-7.05
2022-12-15T04:31:12.436Z,-7.14
2022-12-15T04:41:37.318Z,-6.94
2022-12-15T04:51:59.651Z,-6.80
2022-12-15T05:02:22.127Z,-6.72
2022-12-15T05:12:44.882Z,-6.73
2022-12-15T05:23:12.865Z,-6.58
2022-12-15T05:33:16.475Z,-6.46
2022-12-15T05:43:24.771Z,-6.43
2022-12-15T05:53:30.408Z,-6.30
2022-12-15T06:03:35.147Z,-6.21
2022-12-15T06:13:38.993Z,-5.96
2022-12-15T06:23:43.158Z,-5.75
2022-12-15T06:33:48.601Z,-5.66
2022-12-15T06:43:55.971Z,-5.77
2022-12-15T06:53:59.679Z,-5.62
2022-12-15T07:04:06.096Z,-5.52
2022-12-15T07:14:11.498Z,-5.53
2022-12-15T07:24:18.930Z,-5.44
2022-12-15T07:34:23.034Z,-5.16
2022-12-15T07:44:26.682Z,-5.09
2022-12-15T07:54:30.928Z,-4.82
2022-12-15T08:04:34.652Z,-4.68
2022-12-15T08:14:38.496Z,-4.52
2022-12-15T08:24:42.462Z,-4.36
2022-12-15T08:34:49.547Z,-4.21
2022-12-15T08:44:56.866Z,-4.06
2022-12-15T08:55:04.207Z,-3.94
2022-12-15T09:05:09.124Z,-3.81
2022-12-15T09:15:13.207Z,-3.61
2022-12-15T09:25:16.933Z,-3.36
2022-12-15T09:35:20.967Z,-3.04
2022-12-15T09:45:31.544Z,-2.71
2022-12-15T09:55:38.074Z,-2.84
2022-12-15T10:06:21.445Z,-2.67
2022-12-15T10:16:50.209Z,-2.53
2022-12-15T10:27:17.435Z,-2.43
2022-12-15T10:37:26.453Z,-2.36
2022-12-15T10:47:32.317Z,-2.35
2022-12-15T10:57:36.190Z,-2.16
2022-12-15T11:07:41.225Z,-2.03
2022-12-15T11:17:45.088Z,-2.07
2022-12-15T11:27:54.272Z,-2.18
2022-12-15T11:38:12.062Z,-2.08
2022-12-15T11:48:43.221Z,-2.13
2022-12-15T11:59:24.178Z,-2.25
2022-12-15T12:09:52.316Z,-2.55
2022-12-15T12:20:03.870Z,-2.75
2022-12-15T12:30:18.247Z,-2.88
2022-12-15T12:40:50.304Z,-2.97
2022-12-15T12:51:18.851Z,-2.74
2022-12-15T13:01:34.840Z,-2.73
2022-12-15T13:13:03.841Z,-2.84
2022-12-15T13:22:54.870Z,-2.73
2022-12-15T13:33:19.560Z,-2.99
2022-12-15T13:43:48.895Z,-3.02
2022-12-15T13:54:21.961Z,-3.30
2022-12-15T14:04:26.407Z,-3.37
2022-12-15T14:14:37.703Z,-3.24
2022-12-15T14:35:26.706Z,-3.37
2022-12-15T14:45:32.929Z,-3.25
2022-12-15T14:55:38.676Z,-3.21
2022-12-15T15:03:14.311Z,-3.23
2022-12-15T15:05:47.063Z,-3.45
2022-12-15T15:16:06.729Z,-3.20
2022-12-15T15:26:14.177Z,-3.49
2022-12-15T15:36:17.726Z,-3.42
2022-12-15T15:46:28.426Z,-3.50
2022-12-15T15:56:32.258Z,-3.86
2022-12-15T16:06:43.485Z,-3.90
2022-12-15T16:16:50.391Z,-4.03
2022-12-15T16:26:54.284Z,-3.68
2022-12-15T16:37:00.727Z,-3.58
2022-12-15T16:47:04.408Z,-3.72
2022-12-15T16:57:12.312Z,-3.85
2022-12-15T17:07:20.007Z,-4.10
2022-12-15T17:17:26.598Z,-4.03
2022-12-15T17:27:30.574Z,-3.77
2022-12-15T17:37:35.516Z,-3.90
2022-12-15T17:47:39.291Z,-4.11
2022-12-15T17:57:43.096Z,-4.56
2022-12-15T18:07:50.678Z,-4.71
2022-12-15T18:17:54.825Z,-4.70
2022-12-15T18:28:00.266Z,-4.64
2022-12-15T18:38:14.713Z,-4.96
2022-12-15T18:48:40.077Z,-5.19
2022-12-15T18:58:43.948Z,-5.23
2022-12-15T19:08:50.798Z,-5.02
2022-12-15T19:19:17.201Z,-4.63
2022-12-15T19:29:22.232Z,-4.37
2022-12-15T19:39:27.759Z,-4.06
2022-12-15T19:49:31.409Z,-3.85
2022-12-15T19:59:35.064Z,-3.77
2022-12-15T20:09:40.317Z,-3.62
2022-12-15T20:19:46.482Z,-3.42
2022-12-15T20:29:50.425Z,-3.45
2022-12-15T20:39:57.818Z,-3.50
2022-12-15T20:50:01.921Z,-3.50
2022-12-15T21:00:06.745Z,-3.69
2022-12-15T21:10:12.606Z,-3.66
2022-12-15T21:20:16.432Z,-3.54
2022-12-15T21:30:22.716Z,-3.57
2022-12-15T21:40:29.127Z,-3.65
2022-12-15T21:50:34.665Z,-3.60
2022-12-15T22:00:42.324Z,-3.46
2022-12-15T22:10:51.938Z,-3.59
2022-12-15T22:20:56.504Z,-3.84
2022-12-15T22:31:03.662Z,-3.45
2022-12-15T22:41:23.988Z,-3.45
2022-12-15T22:51:27.612Z,-3.31
2022-12-15T23:01:31.633Z,-3.24
2022-12-15T23:11:38.111Z,-3.43
2022-12-15T23:21:41.958Z,-3.39
2022-12-15T23:31:45.584Z,-3.11
2022-12-15T23:41:49.240Z,-2.99
2022-12-15T23:51:52.904Z,-2.88
